createdAt,value
2024-02-21T00:01:33.405Z,41.98
2024-02-21T00:04:01.424Z,41.10
2024-02-21T00:06:28.647Z,41.40
2024-02-21T00:08:55.903Z,41.01
2024-02-21T00:11:23.552Z,42.45
2024-02-21T00:13:52.051Z,41.03
2024-02-21T00:16:19.292Z,42.66
2024-02-21T00:18:46.805Z,42.82
2024-02-21T00:21:18.985Z,42.49
2024-02-21T00:23:47.201Z,41.23
2024-02-21T00:26:17.417Z,40.71
2024-02-21T00:28:44.654Z,39.84
2024-02-21T00:31:12.173Z,39.85
2024-02-21T00:33:39.434Z,40.10
2024-02-21T00:36:06.658Z,40.12
2024-02-21T00:38:34.287Z,39.44
2024-02-21T00:41:01.505Z,39.51
2024-02-21T00:43:28.810Z,40.17
2024-02-21T00:45:56.368Z,39.50
2024-02-21T00:48:23.791Z,39.74
2024-02-21T00:50:51.042Z,40.18
2024-02-21T00:53:18.509Z,39.88
2024-02-21T00:55:45.763Z,39.52
2024-02-21T00:58:13.400Z,39.78
2024-02-21T01:00:41.843Z,40.19
2024-02-21T01:03:09.106Z,41.22
2024-02-21T01:05:36.408Z,40.24
2024-02-21T01:08:04.134Z,39.50
2024-02-21T01:10:31.396Z,39.29
2024-02-21T01:12:58.697Z,39.09
2024-02-21T01:15:26.307Z,40.83
2024-02-21T01:17:55.878Z,39.74
2024-02-21T01:20:23.235Z,39.90
2024-02-21T01:22:50.782Z,39.77
2024-02-21T01:25:18.114Z,39.86
2024-02-21T01:27:45.308Z,39.99
2024-02-21T01:30:12.983Z,40.52
2024-02-21T01:32:40.239Z,40.95
2024-02-21T01:35:07.712Z,41.13
2024-02-21T01:37:35.779Z,40.54
2024-02-21T01:40:04.311Z,40.42
2024-02-21T01:42:31.566Z,41.45
2024-02-21T01:44:59.028Z,41.26
2024-02-21T01:47:26.219Z,41.80
2024-02-21T01:49:53.446Z,42.01
2024-02-21T01:52:20.942Z,41.88
2024-02-21T01:54:48.150Z,42.85
2024-02-21T01:57:15.944Z,42.06
2024-02-21T01:59:43.382Z,42.33
2024-02-21T02:02:10.621Z,41.20
2024-02-21T02:04:38.672Z,41.07
2024-02-21T02:07:05.952Z,41.30
2024-02-21T02:09:33.157Z,41.83
2024-02-21T02:12:00.723Z,40.26
2024-02-21T02:14:27.951Z,40.50
2024-02-21T02:16:55.252Z,40.30
2024-02-21T02:19:23.008Z,41.12
2024-02-21T02:21:57.831Z,40.54
2024-02-21T02:24:25.683Z,40.31
2024-02-21T02:26:52.963Z,40.67
2024-02-21T02:29:20.540Z,40.97
2024-02-21T02:31:48.237Z,40.84
2024-02-21T02:34:16.096Z,40.27
2024-02-21T02:36:43.366Z,39.74
2024-02-21T02:39:11.234Z,41.44
2024-02-21T02:41:38.441Z,41.40
2024-02-21T02:44:05.732Z,41.25
2024-02-21T02:46:33.276Z,41.11
2024-02-21T02:49:00.791Z,40.93
2024-02-21T02:51:28.110Z,40.68
2024-02-21T02:53:55.657Z,40.40
2024-02-21T02:56:22.845Z,39.64
2024-02-21T02:58:50.129Z,39.66
2024-02-21T03:01:17.757Z,39.69
2024-02-21T03:03:47.008Z,39.88
2024-02-21T03:06:15.012Z,39.67
2024-02-21T03:08:42.579Z,39.75
2024-02-21T03:11:10.014Z,39.89
2024-02-21T03:13:37.398Z,39.37
2024-02-21T03:16:05.015Z,39.54
2024-02-21T03:18:33.168Z,39.51
2024-02-21T03:21:00.682Z,38.74
2024-02-21T03:23:28.224Z,39.33
2024-02-21T03:25:55.530Z,39.27
2024-02-21T03:28:22.828Z,39.22
2024-02-21T03:30:50.313Z,39.06
2024-02-21T03:33:17.529Z,38.99
2024-02-21T03:35:44.711Z,38.85
2024-02-21T03:38:12.160Z,39.27
2024-02-21T03:40:39.427Z,40.02
2024-02-21T03:43:06.624Z,39.78
2024-02-21T03:45:34.165Z,40.31
2024-02-21T03:48:01.474Z,40.39
2024-02-21T03:50:29.042Z,40.12
2024-02-21T03:52:56.671Z,40.03
2024-02-21T03:55:23.888Z,40.23
2024-02-21T03:57:51.201Z,40.25
2024-02-21T04:00:18.949Z,40.56
2024-02-21T04:02:46.393Z,40.37
2024-02-21T04:05:16.539Z,39.82
2024-02-21T04:07:44.160Z,39.12
2024-02-21T04:10:11.854Z,39.72
2024-02-21T04:12:39.552Z,40.09
2024-02-21T04:15:07.115Z,40.11
2024-02-21T04:17:34.588Z,39.76
2024-02-21T04:20:09.958Z,40.11
2024-02-21T04:22:37.656Z,39.81
2024-02-21T04:25:05.011Z,39.68
2024-02-21T04:27:32.187Z,40.02
2024-02-21T04:29:59.795Z,40.60
2024-02-21T04:32:28.586Z,40.37
2024-02-21T04:34:56.187Z,40.61
2024-02-21T04:37:23.888Z,40.18
2024-02-21T04:39:51.122Z,40.22
2024-02-21T04:42:18.455Z,39.96
2024-02-21T04:44:45.945Z,39.90
2024-02-21T04:47:13.317Z,40.30
2024-02-21T04:49:40.576Z,39.61
2024-02-21T04:52:08.096Z,40.09
2024-02-21T04:54:36.705Z,40.40
2024-02-21T04:57:05.547Z,40.72
2024-02-21T04:59:33.465Z,41.33
2024-02-21T05:02:00.999Z,41.25
2024-02-21T05:04:28.524Z,41.68
2024-02-21T05:06:56.164Z,42.27
2024-02-21T05:09:23.470Z,41.18
2024-02-21T05:11:50.791Z,41.49
2024-02-21T05:14:18.632Z,41.12
2024-02-21T05:16:46.396Z,41.15
2024-02-21T05:19:13.968Z,40.91
2024-02-21T05:21:41.528Z,40.34
2024-02-21T05:24:08.756Z,40.45
2024-02-21T05:26:36.052Z,41.40
2024-02-21T05:29:03.578Z,41.81
2024-02-21T05:31:43.988Z,40.73
2024-02-21T05:34:12.496Z,40.96
2024-02-21T05:36:40.028Z,40.93
2024-02-21T05:39:07.529Z,41.26
2024-02-21T05:41:34.954Z,41.39
2024-02-21T05:44:02.216Z,41.80
2024-02-21T05:46:29.567Z,41.33
2024-02-21T05:48:57.218Z,41.67
2024-02-21T05:51:24.425Z,40.74
2024-02-21T05:53:52.226Z,41.29
2024-02-21T05:56:20.616Z,39.96
2024-02-21T05:58:47.937Z,40.59
2024-02-21T06:01:15.832Z,41.62
2024-02-21T06:03:43.387Z,42.09
2024-02-21T06:06:10.942Z,41.56
2024-02-21T06:08:38.290Z,42.34
2024-02-21T06:11:05.879Z,42.32
2024-02-21T06:13:33.156Z,42.39
2024-02-21T06:16:00.405Z,42.44
2024-02-21T06:18:27.925Z,41.74
2024-02-21T06:20:55.183Z,42.01
2024-02-21T06:23:22.449Z,41.84
2024-02-21T06:25:50.061Z,41.93
2024-02-21T06:28:17.359Z,41.52
2024-02-21T06:30:44.630Z,41.05
2024-02-21T06:33:12.279Z,41.42
2024-02-21T06:35:42.247Z,41.80
2024-02-21T06:38:09.822Z,41.88
2024-02-21T06:40:40.789Z,42.39
2024-02-21T06:43:08.281Z,42.68
2024-02-21T06:45:35.503Z,42.37
2024-02-21T06:48:03.393Z,42.70
2024-02-21T06:50:30.658Z,42.71
2024-02-21T06:52:57.979Z,42.05
2024-02-21T06:55:25.573Z,42.32
2024-02-21T06:57:52.856Z,41.86
2024-02-21T07:00:22.561Z,41.81
2024-02-21T07:02:50.208Z,40.75
2024-02-21T07:05:17.956Z,40.76
2024-02-21T07:07:45.313Z,41.05
2024-02-21T07:10:12.812Z,41.87
2024-02-21T07:12:43.099Z,40.24
2024-02-21T07:15:11.370Z,41.12
2024-02-21T07:17:38.850Z,47.63
2024-02-21T07:20:06.452Z,43.57
2024-02-21T07:22:33.734Z,43.05
2024-02-21T07:25:04.621Z,41.02
2024-02-21T07:27:34.533Z,41.40
2024-02-21T07:30:02.038Z,41.80
2024-02-21T07:32:29.253Z,41.50
2024-02-21T07:34:57.034Z,41.26
2024-02-21T07:37:24.600Z,41.27
2024-02-21T07:39:51.862Z,40.88
2024-02-21T07:42:19.093Z,41.10
2024-02-21T07:44:46.576Z,41.49
2024-02-21T07:47:13.935Z,41.35
2024-02-21T07:49:45.472Z,41.62
2024-02-21T07:52:13.044Z,40.68
2024-02-21T07:54:40.234Z,41.88
2024-02-21T07:57:07.965Z,42.16
2024-02-21T07:59:35.556Z,41.84
2024-02-21T08:02:03.706Z,42.42
2024-02-21T08:04:31.386Z,42.05
2024-02-21T08:07:02.372Z,42.39
2024-02-21T08:09:29.794Z,41.45
2024-02-21T08:11:57.266Z,40.81
2024-02-21T08:14:25.865Z,39.74
2024-02-21T08:16:56.752Z,40.26
2024-02-21T08:19:24.452Z,40.54
2024-02-21T08:21:51.730Z,40.47
2024-02-21T08:24:18.937Z,39.53
2024-02-21T08:26:46.416Z,38.82
2024-02-21T08:29:13.759Z,38.77
2024-02-21T08:31:41.155Z,39.82
2024-02-21T08:34:08.795Z,40.11
2024-02-21T08:36:36.145Z,40.31
2024-02-21T08:39:06.534Z,39.51
2024-02-21T08:41:47.367Z,39.98
2024-02-21T08:44:23.309Z,40.05
2024-02-21T08:46:50.832Z,39.55
2024-02-21T08:49:18.138Z,39.48
2024-02-21T08:51:45.464Z,40.16
2024-02-21T08:54:13.025Z,40.17
2024-02-21T08:56:40.341Z,39.94
2024-02-21T08:59:07.585Z,39.80
2024-02-21T09:01:35.987Z,39.90
2024-02-21T09:04:04.102Z,39.24
2024-02-21T09:06:31.703Z,39.37
2024-02-21T09:08:59.460Z,39.42
2024-02-21T09:11:28.949Z,39.34
2024-02-21T09:13:56.611Z,39.35
2024-02-21T09:16:24.689Z,38.90
2024-02-21T09:18:53.863Z,39.05
2024-02-21T09:21:21.138Z,38.31
2024-02-21T09:23:48.701Z,38.15
2024-02-21T09:26:17.978Z,37.59
2024-02-21T09:28:45.614Z,37.74
2024-02-21T09:31:13.281Z,37.25
2024-02-21T09:33:40.817Z,37.50
2024-02-21T09:36:08.037Z,37.67
2024-02-21T09:38:38.180Z,37.64
2024-02-21T09:41:06.005Z,36.37
2024-02-21T09:43:33.388Z,36.80
2024-02-21T09:46:01.262Z,37.00
2024-02-21T09:48:35.640Z,36.50
2024-02-21T09:51:18.780Z,35.18
2024-02-21T09:53:54.789Z,35.83
2024-02-21T09:56:26.302Z,34.27
2024-02-21T09:58:53.640Z,34.77
2024-02-21T10:01:25.916Z,34.97
2024-02-21T10:04:03.958Z,33.76
2024-02-21T10:06:31.432Z,33.13
2024-02-21T10:08:58.800Z,33.57
2024-02-21T10:11:26.679Z,33.33
2024-02-21T10:14:06.546Z,33.35
2024-02-21T10:16:38.663Z,33.79
2024-02-21T10:19:06.165Z,34.53
2024-02-21T10:21:33.875Z,34.67
2024-02-21T10:24:01.943Z,34.00
2024-02-21T10:26:29.212Z,33.88
2024-02-21T10:28:57.029Z,34.21
2024-02-21T10:31:25.666Z,34.39
2024-02-21T10:33:57.018Z,34.13
2024-02-21T10:36:25.630Z,33.37
2024-02-21T10:38:53.195Z,33.73
2024-02-21T10:41:20.661Z,33.81
2024-02-21T10:43:50.985Z,33.79
2024-02-21T10:46:19.857Z,33.02
2024-02-21T10:48:47.460Z,32.39
2024-02-21T10:51:21.563Z,32.13
2024-02-21T10:53:52.012Z,32.45
2024-02-21T10:56:28.236Z,33.28
2024-02-21T10:58:57.368Z,32.75
2024-02-21T11:01:25.250Z,32.83
2024-02-21T11:03:55.026Z,32.20
2024-02-21T11:06:22.921Z,31.87
2024-02-21T11:09:00.788Z,31.78
2024-02-21T11:11:34.776Z,31.78
2024-02-21T11:14:19.938Z,32.27
2024-02-21T11:16:47.394Z,31.67
2024-02-21T11:19:22.807Z,33.28
2024-02-21T11:21:50.826Z,34.76
2024-02-21T11:24:28.914Z,30.80
2024-02-21T11:26:56.641Z,31.42
2024-02-21T11:29:24.623Z,31.70
2024-02-21T11:31:52.110Z,31.16
2024-02-21T11:34:20.212Z,30.49
2024-02-21T11:36:51.480Z,31.21
2024-02-21T11:39:22.521Z,31.47
2024-02-21T11:42:05.557Z,39.04
2024-02-21T11:44:32.975Z,36.22
2024-02-21T11:47:01.106Z,36.40
2024-02-21T11:49:31.785Z,35.60
2024-02-21T11:52:00.287Z,33.71
2024-02-21T11:54:28.345Z,32.13
2024-02-21T11:56:56.089Z,31.25
2024-02-21T11:59:23.597Z,28.84
2024-02-21T12:01:53.123Z,28.41
2024-02-21T12:04:21.931Z,30.26
2024-02-21T12:06:49.334Z,30.71
2024-02-21T12:09:20.610Z,28.40
2024-02-21T12:11:57.639Z,28.52
2024-02-21T12:14:25.863Z,29.62
2024-02-21T12:16:53.337Z,30.69
2024-02-21T12:19:20.746Z,29.51
2024-02-21T12:21:48.934Z,31.08
2024-02-21T12:24:17.207Z,31.29
2024-02-21T12:26:48.483Z,28.06
2024-02-21T12:29:16.378Z,28.40
2024-02-21T12:31:46.045Z,27.82
2024-02-21T12:34:14.396Z,28.50
2024-02-21T12:36:49.227Z,29.93
2024-02-21T12:39:17.573Z,30.99
2024-02-21T12:41:45.447Z,29.84
2024-02-21T12:44:13.784Z,31.82
2024-02-21T12:46:41.457Z,33.25
2024-02-21T12:49:11.488Z,30.71
2024-02-21T12:51:39.268Z,31.08
2024-02-21T12:54:06.760Z,29.35
2024-02-21T12:56:33.976Z,29.67
2024-02-21T12:59:01.735Z,31.79
2024-02-21T13:01:29.467Z,30.50
2024-02-21T13:03:58.553Z,32.14
2024-02-21T13:06:26.173Z,30.20
2024-02-21T13:08:54.132Z,29.98
2024-02-21T13:11:21.738Z,30.80
2024-02-21T13:13:49.705Z,29.44
2024-02-21T13:16:17.437Z,28.74
2024-02-21T13:18:44.705Z,29.37
2024-02-21T13:21:11.914Z,30.42
2024-02-21T13:23:39.835Z,32.54
2024-02-21T13:26:07.657Z,31.79
2024-02-21T13:28:35.143Z,32.14
2024-02-21T13:31:02.713Z,38.51
2024-02-21T13:33:30.406Z,31.32
2024-02-21T13:35:57.712Z,29.21
2024-02-21T13:38:25.462Z,32.48
2024-02-21T13:40:52.823Z,32.01
2024-02-21T13:43:20.137Z,29.97
2024-02-21T13:45:57.343Z,29.14
2024-02-21T13:48:25.612Z,30.02
2024-02-21T13:50:53.429Z,30.61
2024-02-21T13:53:21.801Z,29.73
2024-02-21T13:55:49.255Z,31.58
2024-02-21T13:58:16.880Z,31.99
2024-02-21T14:00:44.488Z,28.86
2024-02-21T14:03:12.155Z,30.97
2024-02-21T14:05:43.389Z,31.63
2024-02-21T14:08:11.242Z,30.86
2024-02-21T14:10:38.921Z,31.00
2024-02-21T14:13:06.656Z,28.30
2024-02-21T14:15:33.998Z,30.94
2024-02-21T14:18:01.609Z,28.38
2024-02-21T14:20:28.965Z,31.10
2024-02-21T14:22:56.612Z,30.61
2024-02-21T14:25:24.233Z,30.25
2024-02-21T14:27:52.080Z,30.73
2024-02-21T14:30:19.434Z,30.63
2024-02-21T14:32:47.420Z,30.12
2024-02-21T14:35:16.741Z,27.83
2024-02-21T14:37:44.426Z,27.40
2024-02-21T14:40:12.923Z,27.92
2024-02-21T14:42:40.175Z,27.94
2024-02-21T14:45:07.899Z,27.74
2024-02-21T14:47:35.633Z,28.06
2024-02-21T14:50:04.099Z,28.25
2024-02-21T14:52:31.783Z,28.28
2024-02-21T14:54:59.792Z,27.98
2024-02-21T14:57:28.698Z,28.06
2024-02-21T14:59:57.747Z,28.16
2024-02-21T15:02:25.945Z,28.82
2024-02-21T15:04:53.742Z,28.59
2024-02-21T15:07:21.358Z,28.02
2024-02-21T15:09:49.605Z,28.36
2024-02-21T15:12:16.780Z,27.55
2024-02-21T15:14:44.401Z,26.82
2024-02-21T15:17:12.332Z,27.36
2024-02-21T15:19:43.150Z,27.63
2024-02-21T15:22:13.636Z,27.28
2024-02-21T15:24:41.418Z,26.56
2024-02-21T15:27:09.518Z,26.50
2024-02-21T15:29:37.521Z,26.54
2024-02-21T15:32:05.757Z,27.42
2024-02-21T15:34:33.688Z,27.06
2024-02-21T15:37:01.466Z,26.76
2024-02-21T15:39:29.082Z,26.95
2024-02-21T15:41:57.818Z,27.14
2024-02-21T15:44:25.803Z,27.08
2024-02-21T15:46:54.593Z,27.49
2024-02-21T15:49:22.507Z,27.09
2024-02-21T15:51:50.564Z,26.82
2024-02-21T15:54:22.224Z,27.70
2024-02-21T15:56:51.766Z,27.64
2024-02-21T15:59:19.534Z,27.01
2024-02-21T16:01:47.256Z,26.82
2024-02-21T16:04:16.842Z,26.55
2024-02-21T16:06:45.473Z,26.47
2024-02-21T16:09:12.734Z,26.24
2024-02-21T16:11:40.333Z,25.71
2024-02-21T16:14:08.325Z,25.86
2024-02-21T16:16:35.843Z,26.52
2024-02-21T16:19:06.564Z,26.75
2024-02-21T16:21:34.325Z,27.19
2024-02-21T16:24:01.905Z,27.85
2024-02-21T16:26:29.463Z,27.77
2024-02-21T16:28:56.698Z,27.27
2024-02-21T16:31:24.484Z,27.84
2024-02-21T16:33:52.138Z,28.18
2024-02-21T16:36:25.825Z,27.85
2024-02-21T16:38:53.494Z,28.20
2024-02-21T16:41:25.026Z,27.92
2024-02-21T16:43:52.483Z,27.99
2024-02-21T16:46:21.585Z,28.25
2024-02-21T16:48:50.182Z,28.13
2024-02-21T16:51:17.645Z,28.04
2024-02-21T16:53:46.092Z,28.43
2024-02-21T16:56:13.563Z,28.82
2024-02-21T16:58:40.937Z,29.73
2024-02-21T17:01:12.889Z,28.84
2024-02-21T17:03:41.844Z,29.16
2024-02-21T17:06:15.841Z,29.40
2024-02-21T17:08:46.078Z,29.02
2024-02-21T17:11:14.329Z,28.97
2024-02-21T17:13:43.299Z,28.92
2024-02-21T17:16:12.283Z,29.11
2024-02-21T17:18:40.889Z,29.71
2024-02-21T17:21:09.208Z,29.87
2024-02-21T17:23:36.611Z,30.00
2024-02-21T17:26:04.341Z,29.70
2024-02-21T17:28:33.525Z,30.07
2024-02-21T17:31:00.790Z,30.42
2024-02-21T17:33:28.364Z,30.75
2024-02-21T17:35:56.033Z,30.53
2024-02-21T17:38:24.156Z,30.73
2024-02-21T17:40:52.435Z,31.18
2024-02-21T17:43:22.382Z,30.96
2024-02-21T17:45:51.308Z,30.39
2024-02-21T17:48:19.999Z,30.83
2024-02-21T17:50:47.400Z,30.35
2024-02-21T17:53:15.405Z,30.53
2024-02-21T17:55:43.041Z,29.83
2024-02-21T17:58:10.274Z,30.14
2024-02-21T18:00:42.562Z,29.76
2024-02-21T18:03:11.218Z,29.75
2024-02-21T18:05:39.020Z,29.47
2024-02-21T18:08:07.982Z,29.63
2024-02-21T18:10:39.103Z,30.06
2024-02-21T18:13:06.883Z,30.17
2024-02-21T18:15:34.738Z,30.16
2024-02-21T18:18:02.290Z,30.08
2024-02-21T18:20:32.487Z,31.12
2024-02-21T18:22:59.835Z,30.72
2024-02-21T18:25:27.872Z,30.65
2024-02-21T18:27:56.108Z,30.55
2024-02-21T18:30:24.545Z,30.82
2024-02-21T18:32:52.208Z,29.33
2024-02-21T18:35:19.883Z,29.43
2024-02-21T18:37:48.105Z,30.52
2024-02-21T18:40:18.542Z,30.95
2024-02-21T18:42:48.085Z,30.84
2024-02-21T18:45:18.768Z,30.48
2024-02-21T18:47:46.782Z,30.15
2024-02-21T18:50:14.492Z,30.02
2024-02-21T18:52:42.592Z,30.39
2024-02-21T18:55:12.389Z,30.10
2024-02-21T18:57:40.542Z,29.67
2024-02-21T19:00:11.150Z,30.13
2024-02-21T19:02:38.540Z,30.00
2024-02-21T19:05:06.432Z,30.00
2024-02-21T19:07:35.685Z,30.38
2024-02-21T19:10:05.093Z,30.71
2024-02-21T19:12:32.689Z,30.68
2024-02-21T19:15:00.850Z,30.39
2024-02-21T19:17:30.093Z,29.57
2024-02-21T19:19:57.664Z,30.14
2024-02-21T19:22:30.348Z,29.79
2024-02-21T19:24:58.148Z,29.96
2024-02-21T19:27:26.081Z,29.98
2024-02-21T19:29:53.265Z,30.43
2024-02-21T19:32:23.720Z,30.89
2024-02-21T19:34:53.369Z,30.57
2024-02-21T19:37:22.492Z,29.93
2024-02-21T19:39:50.099Z,30.50
2024-02-21T19:42:17.883Z,30.99
2024-02-21T19:44:45.410Z,30.89
2024-02-21T19:47:14.527Z,31.30
2024-02-21T19:49:43.092Z,31.26
2024-02-21T19:52:10.437Z,31.29
2024-02-21T19:54:37.817Z,30.93
2024-02-21T19:57:05.497Z,46.18
2024-02-21T19:59:34.142Z,35.85
2024-02-21T20:02:01.831Z,32.04
2024-02-21T20:04:30.299Z,31.24
2024-02-21T20:06:58.106Z,30.98
2024-02-21T20:09:25.796Z,31.09
2024-02-21T20:11:54.282Z,30.33
2024-02-21T20:14:23.016Z,30.92
2024-02-21T20:16:51.290Z,31.65
2024-02-21T20:19:19.528Z,31.65
2024-02-21T20:21:48.395Z,31.39
2024-02-21T20:24:28.037Z,31.15
2024-02-21T20:27:03.578Z,32.16
2024-02-21T20:29:31.805Z,31.49
2024-02-21T20:32:00.788Z,31.66
2024-02-21T20:34:31.645Z,31.94
2024-02-21T20:36:59.241Z,31.41
2024-02-21T20:39:29.274Z,31.95
2024-02-21T20:41:57.921Z,32.49
2024-02-21T20:44:26.112Z,32.46
2024-02-21T20:46:53.382Z,32.34
2024-02-21T20:49:21.025Z,32.36
2024-02-21T20:51:48.456Z,31.89
2024-02-21T20:54:16.274Z,31.18
2024-02-21T20:56:44.592Z,31.88
2024-02-21T20:59:12.183Z,43.28
2024-02-21T21:01:44.887Z,38.43
2024-02-21T21:04:18.768Z,34.52
2024-02-21T21:06:46.084Z,33.92
2024-02-21T21:09:13.366Z,32.93
2024-02-21T21:11:46.377Z,33.20
2024-02-21T21:14:14.617Z,33.25
2024-02-21T21:16:42.598Z,32.96
2024-02-21T21:19:11.495Z,33.03
2024-02-21T21:21:39.642Z,33.12
2024-02-21T21:24:07.879Z,32.73
2024-02-21T21:26:36.374Z,33.06
2024-02-21T21:29:04.155Z,33.41
2024-02-21T21:31:32.552Z,34.41
2024-02-21T21:34:00.706Z,34.09
2024-02-21T21:36:28.189Z,33.68
2024-02-21T21:38:55.692Z,33.49
2024-02-21T21:41:22.958Z,33.03
2024-02-21T21:43:50.174Z,33.21
2024-02-21T21:46:17.852Z,32.94
2024-02-21T21:48:45.244Z,32.27
2024-02-21T21:51:12.602Z,32.76
2024-02-21T21:53:41.015Z,32.69
2024-02-21T21:56:08.359Z,33.28
2024-02-21T21:58:36.012Z,33.59
2024-02-21T22:01:03.802Z,33.70
2024-02-21T22:03:31.505Z,34.52
2024-02-21T22:05:58.863Z,33.14
2024-02-21T22:08:26.283Z,33.37
2024-02-21T22:10:53.843Z,33.67
2024-02-21T22:13:21.067Z,33.13
2024-02-21T22:15:48.579Z,33.09
2024-02-21T22:18:16.515Z,33.78
2024-02-21T22:20:44.082Z,33.84
2024-02-21T22:23:11.613Z,33.17
2024-02-21T22:25:41.672Z,32.95
2024-02-21T22:28:09.313Z,33.98
2024-02-21T22:30:36.721Z,33.20
2024-02-21T22:33:04.310Z,33.89
2024-02-21T22:35:31.603Z,34.12
2024-02-21T22:37:58.968Z,33.96
2024-02-21T22:40:26.507Z,33.53
2024-02-21T22:42:53.800Z,33.75
2024-02-21T22:45:21.215Z,34.15
2024-02-21T22:47:48.887Z,33.94
2024-02-21T22:50:17.221Z,33.29
2024-02-21T22:52:45.310Z,33.47
2024-02-21T22:55:13.140Z,33.45
2024-02-21T22:57:42.898Z,33.78
2024-02-21T23:00:10.545Z,34.01
2024-02-21T23:02:38.287Z,34.15
2024-02-21T23:05:06.043Z,34.24
2024-02-21T23:07:34.579Z,34.46
2024-02-21T23:10:02.678Z,34.14
2024-02-21T23:12:29.967Z,32.66
2024-02-21T23:14:57.427Z,33.83
2024-02-21T23:17:24.959Z,33.21
2024-02-21T23:19:52.224Z,33.05
2024-02-21T23:22:21.796Z,32.54
2024-02-21T23:24:49.334Z,33.01
2024-02-21T23:27:16.694Z,33.09
2024-02-21T23:29:44.833Z,33.35
2024-02-21T23:32:13.723Z,33.69
2024-02-21T23:34:41.182Z,33.38
2024-02-21T23:37:09.142Z,33.36
2024-02-21T23:39:36.642Z,33.72
2024-02-21T23:42:04.349Z,33.48
2024-02-21T23:44:31.712Z,32.93
2024-02-21T23:47:00.067Z,33.46
2024-02-21T23:49:27.703Z,32.95
2024-02-21T23:51:56.709Z,33.31
2024-02-21T23:54:24.296Z,33.41
2024-02-21T23:56:51.623Z,33.65
2024-02-21T23:59:19.032Z,33.22
